Terminal Aerodrome Forecast
Issued by NWS Austin/San Antonio, TX

Home | Current Version | Previous Version | Text Only | Print | Product List | Glossary On
Versions: 1 2 3 4 5 6 7 8 9 10 11 12 13 14 15 16 17 18 19 20 21 22 23 24 25 26 27 28
000
FTUS44 KEWX 202300
TAFAUS
TAF
KAUS 202326Z 2100/2206 08011KT P6SM VCSH SCT040 SCT250
     FM210200 10004KT P6SM SCT025 SCT250
     FM210600 VRB03KT P6SM BKN015
     FM211600 05006KT P6SM BKN040
     FM212000 08007KT P6SM SCT060=

USA.gov is the U.S. government's official web portal to all federal, state and local government web resources and services.